createdAt,value
2022-11-09T00:02:11.687Z,13.09
2022-11-09T00:04:38.015Z,13.03
2022-11-09T00:07:04.411Z,12.93
2022-11-09T00:09:30.801Z,12.82
2022-11-09T00:11:57.009Z,12.80
2022-11-09T00:14:23.333Z,12.96
2022-11-09T00:16:50.702Z,12.94
2022-11-09T00:19:17.069Z,12.95
2022-11-09T00:21:43.391Z,13.09
2022-11-09T00:24:09.711Z,13.13
2022-11-09T00:26:36.071Z,13.12
2022-11-09T00:29:02.411Z,13.10
2022-11-09T00:31:28.772Z,13.06
2022-11-09T00:33:55.109Z,13.09
2022-11-09T00:36:21.428Z,13.18
2022-11-09T00:38:47.803Z,13.20
2022-11-09T00:41:14.127Z,13.20
2022-11-09T00:44:07.718Z,13.23
2022-11-09T00:46:32.271Z,13.30
2022-11-09T00:51:33.922Z,13.22
2022-11-09T00:54:03.372Z,13.20
2022-11-09T00:56:26.682Z,13.17
2022-11-09T00:58:54.007Z,13.20
2022-11-09T01:01:19.418Z,12.96
2022-11-09T01:03:45.709Z,12.84
2022-11-09T01:06:12.122Z,12.77
2022-11-09T01:08:38.441Z,12.64
2022-11-09T01:11:04.768Z,12.73
2022-11-09T01:13:31.190Z,12.93
2022-11-09T01:15:57.544Z,12.91
2022-11-09T01:18:24.017Z,12.96
2022-11-09T01:20:50.351Z,13.10
2022-11-09T01:23:16.892Z,13.16
2022-11-09T01:25:43.069Z,13.15
2022-11-09T01:28:11.315Z,13.13
2022-11-09T01:30:35.736Z,13.24
2022-11-09T01:33:02.164Z,13.33
2022-11-09T01:35:28.527Z,13.25
2022-11-09T01:37:58.651Z,13.16
2022-11-09T01:40:24.959Z,13.21
2022-11-09T01:42:50.008Z,13.06
2022-11-09T01:45:16.361Z,13.09
2022-11-09T01:47:42.689Z,12.98
2022-11-09T01:50:09.054Z,13.00
2022-11-09T01:52:35.377Z,13.08
2022-11-09T01:55:01.723Z,13.28
2022-11-09T01:57:28.112Z,13.32
2022-11-09T01:59:54.447Z,13.25
2022-11-09T02:02:20.771Z,13.17
2022-11-09T02:04:47.129Z,13.31
2022-11-09T02:07:13.560Z,13.40
2022-11-09T02:09:39.850Z,13.44
2022-11-09T02:12:06.194Z,13.48
2022-11-09T02:14:32.502Z,13.49
2022-11-09T02:16:58.842Z,13.48
2022-11-09T02:19:25.178Z,13.46
2022-11-09T02:21:51.528Z,13.46
2022-11-09T02:24:17.873Z,13.51
2022-11-09T02:26:44.208Z,13.44
2022-11-09T02:29:10.552Z,13.39
2022-11-09T02:31:36.906Z,13.41
2022-11-09T02:34:03.243Z,13.39
2022-11-09T02:36:29.607Z,13.30
2022-11-09T02:38:55.916Z,13.17
2022-11-09T02:41:22.253Z,13.25
2022-11-09T02:43:48.612Z,13.25
2022-11-09T02:46:14.956Z,13.29
2022-11-09T02:48:41.302Z,13.32
2022-11-09T02:51:07.673Z,13.29
2022-11-09T02:53:33.987Z,13.31
2022-11-09T02:56:00.310Z,13.37
2022-11-09T02:58:26.635Z,13.33
2022-11-09T03:00:53.046Z,13.39
2022-11-09T03:03:19.691Z,13.41
2022-11-09T03:05:45.665Z,13.45
2022-11-09T03:08:12.003Z,13.53
2022-11-09T03:10:38.399Z,13.46
2022-11-09T03:13:04.715Z,13.43
2022-11-09T03:15:31.027Z,13.39
2022-11-09T03:17:57.377Z,13.45
2022-11-09T03:20:23.703Z,13.39
2022-11-09T03:22:50.042Z,13.42
2022-11-09T03:25:16.495Z,13.40
2022-11-09T03:27:42.777Z,13.35
2022-11-09T03:30:09.145Z,13.36
2022-11-09T03:32:35.465Z,13.22
2022-11-09T03:35:01.789Z,13.02
2022-11-09T03:37:28.158Z,12.98
2022-11-09T03:39:54.473Z,12.83
2022-11-09T03:42:20.855Z,12.87
2022-11-09T03:44:47.177Z,12.91
2022-11-09T03:47:13.499Z,12.92
2022-11-09T03:49:39.827Z,12.85
2022-11-09T03:52:06.189Z,12.85
2022-11-09T03:54:32.541Z,12.83
2022-11-09T03:56:58.834Z,12.80
2022-11-09T03:59:25.390Z,12.82
2022-11-09T04:01:51.657Z,12.75
2022-11-09T04:04:17.978Z,12.70
2022-11-09T04:06:44.392Z,12.66
2022-11-09T04:09:10.654Z,12.66
2022-11-09T04:11:36.976Z,12.64
2022-11-09T04:14:03.304Z,12.57
2022-11-09T04:16:29.644Z,12.63
2022-11-09T04:18:55.975Z,12.62
2022-11-09T04:21:30.720Z,12.54
2022-11-09T04:23:58.382Z,12.59
2022-11-09T04:26:25.766Z,12.55
2022-11-09T04:28:51.109Z,12.54
2022-11-09T04:31:17.445Z,12.66
2022-11-09T04:33:43.769Z,12.71
2022-11-09T04:36:10.082Z,12.67
2022-11-09T04:38:36.455Z,12.61
2022-11-09T04:41:02.767Z,12.63
2022-11-09T04:43:29.093Z,12.67
2022-11-09T04:45:55.418Z,12.60
2022-11-09T04:48:21.755Z,12.57
2022-11-09T04:50:48.131Z,12.61
2022-11-09T04:53:14.478Z,12.70
2022-11-09T04:55:40.820Z,12.79
2022-11-09T04:58:07.164Z,12.83
2022-11-09T05:00:33.500Z,12.79
2022-11-09T05:02:59.851Z,12.66
2022-11-09T05:05:26.239Z,12.52
2022-11-09T05:07:52.655Z,12.54
2022-11-09T05:10:19.008Z,12.49
2022-11-09T05:12:46.087Z,12.44
2022-11-09T05:15:11.621Z,12.47
2022-11-09T05:17:37.962Z,12.51
2022-11-09T05:20:04.301Z,12.52
2022-11-09T05:22:30.667Z,12.62
2022-11-09T05:24:57.004Z,12.59
2022-11-09T05:27:23.347Z,12.52
2022-11-09T05:29:49.695Z,12.47
2022-11-09T05:32:16.020Z,12.50
2022-11-09T05:34:42.379Z,12.48
2022-11-09T05:37:08.722Z,12.54
2022-11-09T05:39:35.077Z,12.53
2022-11-09T05:42:01.444Z,12.49
2022-11-09T05:44:27.779Z,12.48
2022-11-09T05:46:54.098Z,12.39
2022-11-09T05:49:20.473Z,12.50
2022-11-09T05:51:46.827Z,12.52
2022-11-09T05:54:13.130Z,12.44
2022-11-09T05:56:39.537Z,12.51
2022-11-09T05:59:05.881Z,12.51
2022-11-09T06:01:32.200Z,12.59
2022-11-09T06:03:58.557Z,12.73
2022-11-09T06:06:24.918Z,12.83
2022-11-09T06:08:51.234Z,12.96
2022-11-09T06:11:23.599Z,13.07
2022-11-09T06:13:43.987Z,13.21
2022-11-09T06:16:10.575Z,13.25
2022-11-09T06:18:36.955Z,13.28
2022-11-09T06:21:03.299Z,13.65
2022-11-09T06:23:29.738Z,13.81
2022-11-09T06:25:56.126Z,13.64
2022-11-09T06:28:22.441Z,13.59
2022-11-09T06:30:48.827Z,13.92
2022-11-09T06:33:15.179Z,14.28
2022-11-09T06:35:41.510Z,14.50
2022-11-09T06:38:07.856Z,14.62
2022-11-09T06:40:34.197Z,14.90
2022-11-09T06:43:00.529Z,15.25
2022-11-09T06:45:26.870Z,15.53
2022-11-09T06:47:53.244Z,16.02
2022-11-09T06:50:19.611Z,16.40
2022-11-09T06:52:45.917Z,16.71
2022-11-09T06:55:12.247Z,17.00
2022-11-09T06:57:38.602Z,17.45
2022-11-09T07:00:04.897Z,17.51
2022-11-09T07:02:31.273Z,17.55
2022-11-09T07:04:57.620Z,17.77
2022-11-09T07:07:27.922Z,17.88
2022-11-09T07:09:50.317Z,17.50
2022-11-09T07:12:16.642Z,17.86
2022-11-09T07:14:42.985Z,18.14
2022-11-09T07:17:09.340Z,18.03
2022-11-09T07:19:35.682Z,18.18
2022-11-09T07:22:02.035Z,18.23
2022-11-09T07:24:28.366Z,18.28
2022-11-09T07:26:54.701Z,18.36
2022-11-09T07:29:21.019Z,18.72
2022-11-09T07:31:47.371Z,18.55
2022-11-09T07:34:13.745Z,18.75
2022-11-09T07:36:40.096Z,19.12
2022-11-09T07:39:06.451Z,19.33
2022-11-09T07:41:34.828Z,19.03
2022-11-09T07:43:59.103Z,19.58
2022-11-09T07:46:25.453Z,19.55
2022-11-09T07:48:51.843Z,19.27
2022-11-09T07:51:18.158Z,19.67
2022-11-09T07:53:44.498Z,19.84
2022-11-09T07:56:11.020Z,19.81
2022-11-09T07:58:37.484Z,19.41
2022-11-09T08:01:03.864Z,19.77
2022-11-09T08:03:30.200Z,20.13
2022-11-09T08:05:57.087Z,20.56
2022-11-09T08:08:23.477Z,20.21
2022-11-09T08:10:49.823Z,20.37
2022-11-09T08:13:16.139Z,20.27
2022-11-09T08:15:42.492Z,20.38
2022-11-09T08:18:08.841Z,19.97
2022-11-09T08:20:35.170Z,20.40
2022-11-09T08:23:04.657Z,20.75
2022-11-09T08:25:27.835Z,20.87
2022-11-09T08:27:54.177Z,20.86
2022-11-09T08:30:20.537Z,20.96
2022-11-09T08:32:46.879Z,21.00
2022-11-09T08:35:13.235Z,20.61
2022-11-09T08:37:39.530Z,20.76
2022-11-09T08:40:05.869Z,20.72
2022-11-09T08:42:32.321Z,20.85
2022-11-09T08:44:58.696Z,20.92
2022-11-09T08:47:25.039Z,21.03
2022-11-09T08:49:51.362Z,21.09
2022-11-09T08:52:17.715Z,21.28
2022-11-09T08:54:44.212Z,21.23
2022-11-09T08:57:10.554Z,21.43
2022-11-09T08:59:36.878Z,21.84
2022-11-09T09:02:03.299Z,21.57
2022-11-09T09:04:29.628Z,21.76
2022-11-09T09:06:56.000Z,22.07
2022-11-09T09:09:22.285Z,22.36
2022-11-09T09:11:48.605Z,22.45
2022-11-09T09:14:15.026Z,22.80
2022-11-09T09:16:41.369Z,22.25
2022-11-09T09:19:07.747Z,22.11
2022-11-09T09:21:34.071Z,22.61
2022-11-09T09:24:00.420Z,22.72
2022-11-09T09:26:26.777Z,22.93
2022-11-09T09:28:53.122Z,22.86
2022-11-09T09:31:19.442Z,22.37
2022-11-09T09:33:45.766Z,22.52
2022-11-09T09:36:12.104Z,22.80
2022-11-09T09:38:38.468Z,22.53
2022-11-09T09:41:04.823Z,22.68
2022-11-09T09:43:31.171Z,23.11
2022-11-09T09:45:57.531Z,23.13
2022-11-09T09:48:23.892Z,23.53
2022-11-09T09:50:50.217Z,23.68
2022-11-09T09:53:25.178Z,23.34
2022-11-09T09:55:42.899Z,23.17
2022-11-09T09:58:09.242Z,23.35
2022-11-09T10:00:35.592Z,23.91
2022-11-09T10:03:01.919Z,23.97
2022-11-09T10:05:28.241Z,23.78
2022-11-09T10:07:54.633Z,23.70
2022-11-09T10:10:20.978Z,23.89
2022-11-09T10:12:47.318Z,23.69
2022-11-09T10:15:13.642Z,23.52
2022-11-09T10:17:39.989Z,23.67
2022-11-09T10:20:06.308Z,24.06
2022-11-09T10:22:32.654Z,24.70
2022-11-09T10:25:20.746Z,24.84
2022-11-09T10:27:25.349Z,24.57
2022-11-09T10:29:51.671Z,24.90
2022-11-09T10:32:18.031Z,24.83
2022-11-09T10:34:44.362Z,25.20
2022-11-09T10:37:10.731Z,24.98
2022-11-09T10:39:37.076Z,24.91
2022-11-09T10:42:03.416Z,25.06
2022-11-09T10:44:29.796Z,25.12
2022-11-09T10:46:56.168Z,25.12
2022-11-09T10:49:22.501Z,24.81
2022-11-09T10:51:48.835Z,24.59
2022-11-09T10:54:15.176Z,24.95
2022-11-09T10:57:00.593Z,25.05
2022-11-09T10:59:07.870Z,25.26
2022-11-09T11:01:34.275Z,25.43
2022-11-09T11:04:00.570Z,25.19
2022-11-09T11:06:26.893Z,24.61
2022-11-09T11:08:53.295Z,24.64
2022-11-09T11:11:33.374Z,24.40
2022-11-09T11:13:45.948Z,24.60
2022-11-09T11:16:12.438Z,24.67
2022-11-09T11:18:38.604Z,24.49
2022-11-09T11:21:04.953Z,24.18
2022-11-09T11:23:31.269Z,24.33
2022-11-09T11:25:57.655Z,24.53
2022-11-09T11:28:23.973Z,24.82
2022-11-09T11:30:50.323Z,24.62
2022-11-09T11:33:16.675Z,24.49
2022-11-09T11:35:43.016Z,24.22
2022-11-09T11:38:09.340Z,23.59
2022-11-09T11:40:35.709Z,23.62
2022-11-09T11:43:02.071Z,23.57
2022-11-09T11:45:43.679Z,23.88
2022-11-09T11:47:54.728Z,24.30
2022-11-09T11:50:21.090Z,24.71
2022-11-09T11:52:47.466Z,24.68
2022-11-09T11:55:13.773Z,25.07
2022-11-09T11:57:40.119Z,24.66
2022-11-09T12:00:06.452Z,24.63
2022-11-09T12:02:32.819Z,24.67
2022-11-09T12:04:59.126Z,24.37
2022-11-09T12:07:25.531Z,24.31
2022-11-09T12:09:51.831Z,24.17
2022-11-09T12:12:18.170Z,24.00
2022-11-09T12:14:44.518Z,24.03
2022-11-09T12:17:10.858Z,24.74
2022-11-09T12:19:37.252Z,24.83
2022-11-09T12:22:03.602Z,24.82
2022-11-09T12:24:29.931Z,24.52
2022-11-09T12:27:17.847Z,24.86
2022-11-09T12:29:22.604Z,24.39
2022-11-09T12:31:48.946Z,23.98
2022-11-09T12:34:15.304Z,24.53
2022-11-09T12:36:41.649Z,24.97
2022-11-09T12:39:07.990Z,25.36
2022-11-09T12:41:34.308Z,25.17
2022-11-09T12:44:00.639Z,25.03
2022-11-09T12:46:26.979Z,24.95
2022-11-09T12:48:53.327Z,25.05
2022-11-09T12:51:19.667Z,25.09
2022-11-09T12:53:45.984Z,25.07
2022-11-09T12:56:12.434Z,24.94
2022-11-09T12:58:38.696Z,25.19
2022-11-09T13:01:05.024Z,24.89
2022-11-09T13:03:31.376Z,24.69
2022-11-09T13:06:02.371Z,24.27
2022-11-09T13:08:24.082Z,23.83
2022-11-09T13:10:50.479Z,24.18
2022-11-09T13:13:16.744Z,24.16
2022-11-09T13:15:43.085Z,24.24
2022-11-09T13:18:10.665Z,24.25
2022-11-09T13:23:03.327Z,23.54
2022-11-09T13:25:30.574Z,23.34
2022-11-09T13:27:56.944Z,23.34
2022-11-09T13:30:23.270Z,22.89
2022-11-09T13:32:49.600Z,22.51
2022-11-09T13:35:15.946Z,22.50
2022-11-09T13:37:42.316Z,22.61
2022-11-09T13:40:08.627Z,22.31
2022-11-09T13:42:34.965Z,22.28
2022-11-09T13:45:01.318Z,22.12
2022-11-09T13:47:27.666Z,21.70
2022-11-09T13:49:54.012Z,21.52
2022-11-09T13:52:20.400Z,21.56
2022-11-09T13:54:46.738Z,21.58
2022-11-09T13:57:13.115Z,21.46
2022-11-09T13:59:39.463Z,21.40
2022-11-09T14:02:05.863Z,21.27
2022-11-09T14:04:32.106Z,21.32
2022-11-09T14:06:58.481Z,21.19
2022-11-09T14:09:24.795Z,21.25
2022-11-09T14:11:51.169Z,21.24
2022-11-09T14:14:17.520Z,21.10
2022-11-09T14:16:43.851Z,21.08
2022-11-09T14:19:10.198Z,20.90
2022-11-09T14:21:36.520Z,20.98
2022-11-09T14:24:02.907Z,21.03
2022-11-09T14:26:29.249Z,20.91
2022-11-09T14:28:55.698Z,20.84
2022-11-09T14:31:22.033Z,20.87
2022-11-09T14:33:48.385Z,20.77
2022-11-09T14:36:14.726Z,20.74
2022-11-09T14:38:41.046Z,20.67
2022-11-09T14:41:07.392Z,20.54
2022-11-09T14:43:33.707Z,20.42
2022-11-09T14:46:00.183Z,20.29
2022-11-09T14:48:26.378Z,20.29
2022-11-09T14:50:52.722Z,20.31
2022-11-09T14:53:19.047Z,20.28
2022-11-09T14:55:45.424Z,20.25
2022-11-09T14:58:11.736Z,20.20
2022-11-09T15:00:41.849Z,20.16
2022-11-09T15:03:04.399Z,20.12
2022-11-09T15:05:30.750Z,20.05
2022-11-09T15:07:57.089Z,19.95
2022-11-09T15:10:23.440Z,19.91
2022-11-09T15:12:49.761Z,19.87
2022-11-09T15:15:16.100Z,19.80
2022-11-09T15:17:42.456Z,19.74
2022-11-09T15:20:08.806Z,19.63
2022-11-09T15:22:35.158Z,19.53
2022-11-09T15:25:01.536Z,19.43
2022-11-09T15:27:27.881Z,19.32
2022-11-09T15:29:54.225Z,19.23
2022-11-09T15:32:20.600Z,19.21
2022-11-09T15:34:46.981Z,19.14
2022-11-09T15:37:13.315Z,19.13
2022-11-09T15:39:39.644Z,18.96
2022-11-09T15:42:05.987Z,18.87
2022-11-09T15:44:33.450Z,18.71
2022-11-09T15:46:59.759Z,18.70
2022-11-09T15:49:26.186Z,18.53
2022-11-09T15:51:52.499Z,18.36
2022-11-09T15:54:18.840Z,18.34
2022-11-09T15:56:45.208Z,18.30
2022-11-09T15:59:11.555Z,18.25
2022-11-09T16:01:37.944Z,18.19
2022-11-09T16:04:04.357Z,18.16
2022-11-09T16:06:30.690Z,18.18
2022-11-09T16:08:56.981Z,18.11
2022-11-09T16:11:23.325Z,18.00
2022-11-09T16:13:49.647Z,17.97
2022-11-09T16:16:16.001Z,17.93
2022-11-09T16:18:42.374Z,17.86
2022-11-09T16:21:08.698Z,17.82
2022-11-09T16:23:35.021Z,17.65
2022-11-09T16:26:01.398Z,17.53
2022-11-09T16:28:27.751Z,17.53
2022-11-09T16:30:54.064Z,17.56
2022-11-09T16:33:20.413Z,17.56
2022-11-09T16:35:46.905Z,17.45
2022-11-09T16:38:13.117Z,17.40
2022-11-09T16:40:39.428Z,17.33
2022-11-09T16:43:05.842Z,17.24
2022-11-09T16:45:33.737Z,17.21
2022-11-09T16:47:58.512Z,16.97
2022-11-09T16:50:24.848Z,16.78
2022-11-09T16:52:51.175Z,16.70
2022-11-09T16:55:17.493Z,16.72
2022-11-09T16:57:43.863Z,16.81
2022-11-09T17:00:10.406Z,16.96
2022-11-09T17:02:36.730Z,16.96
2022-11-09T17:05:03.054Z,16.87
2022-11-09T17:07:29.401Z,16.71
2022-11-09T17:09:55.747Z,16.70
2022-11-09T17:12:22.068Z,16.72
2022-11-09T17:14:48.453Z,16.65
2022-11-09T17:17:19.615Z,16.63
2022-11-09T17:19:41.116Z,16.46
2022-11-09T17:22:07.479Z,16.47
2022-11-09T17:24:33.825Z,16.43
2022-11-09T17:27:00.163Z,16.34
2022-11-09T17:29:26.553Z,16.12
2022-11-09T17:31:52.867Z,16.04
2022-11-09T17:34:19.320Z,15.83
2022-11-09T17:39:12.016Z,15.60
2022-11-09T17:41:42.447Z,15.51
2022-11-09T17:44:04.695Z,15.47
2022-11-09T17:46:31.018Z,15.46
2022-11-09T17:48:57.339Z,15.50
2022-11-09T17:51:23.682Z,15.31
2022-11-09T17:53:49.997Z,15.20
2022-11-09T17:56:16.427Z,15.18
2022-11-09T17:58:42.782Z,15.25
2022-11-09T18:01:09.247Z,15.38
2022-11-09T18:03:35.479Z,15.39
2022-11-09T18:06:01.839Z,15.40
2022-11-09T18:08:28.201Z,15.45
2022-11-09T18:10:54.557Z,15.50
2022-11-09T18:13:20.900Z,15.56
2022-11-09T18:15:47.244Z,15.47
2022-11-09T18:18:13.598Z,15.33
2022-11-09T18:20:39.931Z,15.35
2022-11-09T18:23:06.291Z,15.34
2022-11-09T18:25:32.639Z,15.33
2022-11-09T18:27:58.990Z,15.35
2022-11-09T18:30:25.324Z,15.35
2022-11-09T18:32:51.676Z,15.35
2022-11-09T18:35:18.018Z,15.24
2022-11-09T18:37:44.372Z,15.17
2022-11-09T18:40:10.688Z,15.05
2022-11-09T18:42:37.043Z,14.92
2022-11-09T18:45:03.423Z,14.81
2022-11-09T18:47:29.784Z,14.79
2022-11-09T18:49:56.104Z,14.70
2022-11-09T18:52:22.529Z,14.59
2022-11-09T18:54:48.973Z,14.64
2022-11-09T18:57:19.595Z,14.54
2022-11-09T18:59:41.634Z,14.67
2022-11-09T19:02:07.987Z,14.54
2022-11-09T19:04:34.340Z,14.56
2022-11-09T19:07:00.822Z,14.49
2022-11-09T19:09:27.081Z,14.47
2022-11-09T19:11:53.447Z,14.38
2022-11-09T19:14:19.785Z,14.27
2022-11-09T19:16:46.178Z,14.24
2022-11-09T19:19:12.491Z,14.24
2022-11-09T19:21:38.825Z,14.21
2022-11-09T19:24:05.149Z,14.25
2022-11-09T19:26:31.473Z,14.24
2022-11-09T19:28:57.838Z,14.25
2022-11-09T19:31:24.209Z,14.21
2022-11-09T19:33:50.525Z,14.25
2022-11-09T19:36:29.753Z,14.29
2022-11-09T19:38:43.210Z,14.24
2022-11-09T19:41:09.536Z,14.16
2022-11-09T19:43:35.864Z,14.16
2022-11-09T19:46:02.196Z,14.13
2022-11-09T19:48:28.553Z,14.11
2022-11-09T19:50:54.876Z,14.04
2022-11-09T19:53:21.236Z,14.02
2022-11-09T19:55:47.599Z,14.02
2022-11-09T19:58:13.985Z,14.04
2022-11-09T20:00:40.665Z,14.06
2022-11-09T20:03:06.987Z,14.04
2022-11-09T20:05:33.336Z,14.02
2022-11-09T20:07:59.666Z,14.11
2022-11-09T20:10:25.996Z,14.10
2022-11-09T20:12:52.350Z,14.07
2022-11-09T20:15:18.698Z,14.13
2022-11-09T20:17:45.103Z,14.16
2022-11-09T20:20:11.532Z,14.05
2022-11-09T20:22:37.930Z,14.03
2022-11-09T20:25:04.314Z,14.03
2022-11-09T20:27:32.300Z,14.05
2022-11-09T20:29:57.005Z,14.05
2022-11-09T20:32:23.391Z,14.13
2022-11-09T20:34:49.716Z,14.11
2022-11-09T20:37:16.055Z,14.13
2022-11-09T20:39:42.383Z,14.09
2022-11-09T20:42:08.786Z,14.09
2022-11-09T20:44:35.121Z,14.07
2022-11-09T20:47:01.455Z,14.04
2022-11-09T20:49:27.808Z,14.04
2022-11-09T20:51:54.158Z,14.08
2022-11-09T20:54:20.521Z,14.09
2022-11-09T20:56:46.905Z,14.07
2022-11-09T20:59:13.252Z,14.12
2022-11-09T21:01:39.612Z,14.01
2022-11-09T21:04:05.958Z,13.99
2022-11-09T21:06:32.327Z,14.02
2022-11-09T21:08:58.635Z,13.95
2022-11-09T21:11:24.986Z,13.84
2022-11-09T21:13:51.352Z,13.82
2022-11-09T21:16:18.072Z,13.75
2022-11-09T21:18:44.412Z,13.67
2022-11-09T21:21:10.736Z,13.70
2022-11-09T21:23:37.109Z,13.71
2022-11-09T21:26:03.462Z,13.53
2022-11-09T21:28:29.782Z,13.38
2022-11-09T21:30:56.100Z,13.24
2022-11-09T21:33:22.483Z,13.37
2022-11-09T21:35:48.819Z,13.34
2022-11-09T21:38:15.140Z,13.34
2022-11-09T21:40:41.477Z,13.26
2022-11-09T21:43:07.831Z,13.20
2022-11-09T21:45:34.162Z,13.18
2022-11-09T21:48:00.483Z,13.17
2022-11-09T21:50:26.833Z,13.13
2022-11-09T21:52:53.153Z,12.89
2022-11-09T21:55:19.575Z,12.89
2022-11-09T21:57:45.951Z,13.02
2022-11-09T22:00:12.264Z,13.16
2022-11-09T22:02:38.593Z,13.22
2022-11-09T22:05:04.939Z,13.29
2022-11-09T22:07:31.290Z,13.27
2022-11-09T22:10:09.840Z,13.21
2022-11-09T22:12:24.018Z,13.22
2022-11-09T22:14:50.374Z,13.25
2022-11-09T22:17:16.696Z,13.26
2022-11-09T22:19:43.070Z,13.20
2022-11-09T22:22:09.390Z,13.03
2022-11-09T22:24:35.710Z,12.93
2022-11-09T22:27:02.079Z,12.99
2022-11-09T22:29:28.457Z,12.90
2022-11-09T22:31:54.761Z,12.81
2022-11-09T22:34:21.109Z,12.81
2022-11-09T22:36:47.461Z,12.74
2022-11-09T22:39:13.808Z,12.72
2022-11-09T22:41:40.150Z,12.66
2022-11-09T22:44:06.464Z,12.55
2022-11-09T22:46:32.822Z,12.49
2022-11-09T22:48:59.161Z,12.43
2022-11-09T22:51:25.539Z,12.35
2022-11-09T22:53:51.894Z,12.35
2022-11-09T22:56:18.239Z,12.28
2022-11-09T22:58:44.557Z,12.29
2022-11-09T23:01:10.966Z,12.37
2022-11-09T23:03:37.260Z,12.29
2022-11-09T23:06:03.578Z,12.30
2022-11-09T23:08:32.142Z,12.62
2022-11-09T23:10:56.242Z,12.90
2022-11-09T23:13:22.867Z,13.16
2022-11-09T23:15:48.929Z,13.27
2022-11-09T23:18:15.274Z,12.93
2022-11-09T23:20:41.618Z,12.48
2022-11-09T23:23:07.957Z,12.10
2022-11-09T23:25:34.301Z,11.78
2022-11-09T23:28:00.655Z,11.59
2022-11-09T23:30:26.976Z,11.53
2022-11-09T23:32:53.435Z,11.41
2022-11-09T23:35:19.760Z,11.37
2022-11-09T23:37:46.099Z,11.41
2022-11-09T23:40:12.426Z,11.38
2022-11-09T23:42:38.808Z,11.40
2022-11-09T23:45:05.157Z,11.41
2022-11-09T23:47:31.497Z,11.46
2022-11-09T23:49:57.880Z,11.35
2022-11-09T23:52:24.198Z,11.37
2022-11-09T23:54:50.526Z,11.39
2022-11-09T23:57:16.881Z,11.25
2022-11-09T23:59:43.218Z,11.23
